sensor_id;sensor_type;location;lat;lon;timestamp;P1;durP1;ratioP1;P2;durP2;ratioP2
23260;SDS011;11799;47.740;-3.390;2023-04-28T00:02:13;10.85;;;5.13;;
23260;SDS011;11799;47.740;-3.390;2023-04-28T00:04:39;11.93;;;5.03;;
23260;SDS011;11799;47.740;-3.390;2023-04-28T00:07:04;10.52;;;4.93;;
23260;SDS011;11799;47.740;-3.390;2023-04-28T00:09:30;11.50;;;5.40;;
23260;SDS011;11799;47.740;-3.390;2023-04-28T00:11:55;13.73;;;5.18;;
23260;SDS011;11799;47.740;-3.390;2023-04-28T00:14:21;11.73;;;5.32;;
23260;SDS011;11799;47.740;-3.390;2023-04-28T00:16:47;16.73;;;5.28;;
23260;SDS011;11799;47.740;-3.390;2023-04-28T00:19:12;17.33;;;5.55;;
23260;SDS011;11799;47.740;-3.390;2023-04-28T00:21:38;12.20;;;4.88;;
23260;SDS011;11799;47.740;-3.390;2023-04-28T00:24:04;9.93;;;4.85;;
23260;SDS011;11799;47.740;-3.390;2023-04-28T00:26:30;19.08;;;5.15;;
23260;SDS011;11799;47.740;-3.390;2023-04-28T00:28:55;12.10;;;4.85;;
23260;SDS011;11799;47.740;-3.390;2023-04-28T00:31:21;12.95;;;5.00;;
23260;SDS011;11799;47.740;-3.390;2023-04-28T00:33:46;12.32;;;4.82;;
23260;SDS011;11799;47.740;-3.390;2023-04-28T00:36:12;11.82;;;5.00;;
23260;SDS011;11799;47.740;-3.390;2023-04-28T00:38:38;13.25;;;4.45;;
23260;SDS011;11799;47.740;-3.390;2023-04-28T00:41:03;12.57;;;5.10;;
23260;SDS011;11799;47.740;-3.390;2023-04-28T00:43:29;14.07;;;5.22;;
23260;SDS011;11799;47.740;-3.390;2023-04-28T00:45:54;14.80;;;5.43;;
23260;SDS011;11799;47.740;-3.390;2023-04-28T00:48:20;13.43;;;5.30;;
23260;SDS011;11799;47.740;-3.390;2023-04-28T00:50:47;11.02;;;4.65;;
23260;SDS011;11799;47.740;-3.390;2023-04-28T00:53:13;13.77;;;5.00;;
23260;SDS011;11799;47.740;-3.390;2023-04-28T00:55:39;8.60;;;4.97;;
23260;SDS011;11799;47.740;-3.390;2023-04-28T00:58:05;9.90;;;4.72;;
23260;SDS011;11799;47.740;-3.390;2023-04-28T01:00:31;9.02;;;4.25;;
23260;SDS011;11799;47.740;-3.390;2023-04-28T01:02:57;9.02;;;4.20;;
23260;SDS011;11799;47.740;-3.390;2023-04-28T01:05:27;8.48;;;3.85;;
23260;SDS011;11799;47.740;-3.390;2023-04-28T01:07:55;10.07;;;4.07;;
23260;SDS011;11799;47.740;-3.390;2023-04-28T01:10:20;9.27;;;3.88;;
23260;SDS011;11799;47.740;-3.390;2023-04-28T01:12:46;9.18;;;3.90;;
23260;SDS011;11799;47.740;-3.390;2023-04-28T01:15:16;7.57;;;3.38;;
23260;SDS011;11799;47.740;-3.390;2023-04-28T01:17:44;6.60;;;3.67;;
23260;SDS011;11799;47.740;-3.390;2023-04-28T01:20:11;7.43;;;2.95;;
23260;SDS011;11799;47.740;-3.390;2023-04-28T01:22:37;7.47;;;3.00;;
23260;SDS011;11799;47.740;-3.390;2023-04-28T01:25:03;8.25;;;3.10;;
23260;SDS011;11799;47.740;-3.390;2023-04-28T01:27:29;3.42;;;2.80;;
23260;SDS011;11799;47.740;-3.390;2023-04-28T01:29:54;5.43;;;3.15;;
23260;SDS011;11799;47.740;-3.390;2023-04-28T01:32:22;5.13;;;2.80;;
23260;SDS011;11799;47.740;-3.390;2023-04-28T01:34:47;6.63;;;2.90;;
23260;SDS011;11799;47.740;-3.390;2023-04-28T01:37:13;4.78;;;2.90;;
23260;SDS011;11799;47.740;-3.390;2023-04-28T01:39:39;3.60;;;2.90;;
23260;SDS011;11799;47.740;-3.390;2023-04-28T01:42:04;6.25;;;3.05;;
23260;SDS011;11799;47.740;-3.390;2023-04-28T01:44:31;8.02;;;3.00;;
23260;SDS011;11799;47.740;-3.390;2023-04-28T01:46:56;8.00;;;2.95;;
23260;SDS011;11799;47.740;-3.390;2023-04-28T01:49:22;8.10;;;2.90;;
23260;SDS011;11799;47.740;-3.390;2023-04-28T01:51:48;3.63;;;2.15;;
23260;SDS011;11799;47.740;-3.390;2023-04-28T01:54:13;3.70;;;2.33;;
23260;SDS011;11799;47.740;-3.390;2023-04-28T01:56:39;4.38;;;2.60;;
23260;SDS011;11799;47.740;-3.390;2023-04-28T01:59:05;4.53;;;2.40;;
23260;SDS011;11799;47.740;-3.390;2023-04-28T02:01:32;4.60;;;2.30;;
23260;SDS011;11799;47.740;-3.390;2023-04-28T02:03:58;5.75;;;2.60;;
23260;SDS011;11799;47.740;-3.390;2023-04-28T02:06:24;4.30;;;2.50;;
23260;SDS011;11799;47.740;-3.390;2023-04-28T02:08:52;4.40;;;2.13;;
23260;SDS011;11799;47.740;-3.390;2023-04-28T02:11:17;3.28;;;2.28;;
23260;SDS011;11799;47.740;-3.390;2023-04-28T02:13:43;3.70;;;2.45;;
23260;SDS011;11799;47.740;-3.390;2023-04-28T02:16:09;5.63;;;2.67;;
23260;SDS011;11799;47.740;-3.390;2023-04-28T02:18:34;4.43;;;2.30;;
23260;SDS011;11799;47.740;-3.390;2023-04-28T02:21:09;7.38;;;2.70;;
23260;SDS011;11799;47.740;-3.390;2023-04-28T02:23:36;3.13;;;1.90;;
23260;SDS011;11799;47.740;-3.390;2023-04-28T02:26:03;5.32;;;1.90;;
23260;SDS011;11799;47.740;-3.390;2023-04-28T02:28:30;3.55;;;1.85;;
23260;SDS011;11799;47.740;-3.390;2023-04-28T02:31:03;4.50;;;2.15;;
23260;SDS011;11799;47.740;-3.390;2023-04-28T02:33:32;3.38;;;1.90;;
23260;SDS011;11799;47.740;-3.390;2023-04-28T02:35:59;3.90;;;1.98;;
23260;SDS011;11799;47.740;-3.390;2023-04-28T02:38:25;2.88;;;2.38;;
23260;SDS011;11799;47.740;-3.390;2023-04-28T02:41:01;2.75;;;2.13;;
23260;SDS011;11799;47.740;-3.390;2023-04-28T02:43:29;5.90;;;2.40;;
23260;SDS011;11799;47.740;-3.390;2023-04-28T02:45:55;6.30;;;2.97;;
23260;SDS011;11799;47.740;-3.390;2023-04-28T02:48:22;4.07;;;3.00;;
23260;SDS011;11799;47.740;-3.390;2023-04-28T02:50:48;4.22;;;3.05;;
23260;SDS011;11799;47.740;-3.390;2023-04-28T02:53:13;3.75;;;2.88;;
23260;SDS011;11799;47.740;-3.390;2023-04-28T02:55:39;5.40;;;3.25;;
23260;SDS011;11799;47.740;-3.390;2023-04-28T02:58:05;6.82;;;2.90;;
23260;SDS011;11799;47.740;-3.390;2023-04-28T03:00:31;6.00;;;3.30;;
23260;SDS011;11799;47.740;-3.390;2023-04-28T03:02:57;4.45;;;2.97;;
23260;SDS011;11799;47.740;-3.390;2023-04-28T03:05:23;5.38;;;2.85;;
23260;SDS011;11799;47.740;-3.390;2023-04-28T03:07:49;5.43;;;3.25;;
23260;SDS011;11799;47.740;-3.390;2023-04-28T03:10:14;5.20;;;3.00;;
23260;SDS011;11799;47.740;-3.390;2023-04-28T03:12:40;7.05;;;3.08;;
23260;SDS011;11799;47.740;-3.390;2023-04-28T03:15:06;7.63;;;2.80;;
23260;SDS011;11799;47.740;-3.390;2023-04-28T03:17:34;3.08;;;2.55;;
23260;SDS011;11799;47.740;-3.390;2023-04-28T03:20:03;5.68;;;2.85;;
23260;SDS011;11799;47.740;-3.390;2023-04-28T03:22:29;3.83;;;2.70;;
23260;SDS011;11799;47.740;-3.390;2023-04-28T03:24:55;5.68;;;3.22;;
23260;SDS011;11799;47.740;-3.390;2023-04-28T03:27:21;4.68;;;2.65;;
23260;SDS011;11799;47.740;-3.390;2023-04-28T03:29:46;6.60;;;3.08;;
23260;SDS011;11799;47.740;-3.390;2023-04-28T03:32:13;5.28;;;3.22;;
23260;SDS011;11799;47.740;-3.390;2023-04-28T03:34:39;7.20;;;3.70;;
23260;SDS011;11799;47.740;-3.390;2023-04-28T03:37:04;7.18;;;3.70;;
23260;SDS011;11799;47.740;-3.390;2023-04-28T03:39:30;8.38;;;3.83;;
23260;SDS011;11799;47.740;-3.390;2023-04-28T03:41:56;6.90;;;4.10;;
23260;SDS011;11799;47.740;-3.390;2023-04-28T03:44:40;8.02;;;4.38;;
23260;SDS011;11799;47.740;-3.390;2023-04-28T03:47:06;16.98;;;5.03;;
23260;SDS011;11799;47.740;-3.390;2023-04-28T03:49:31;17.42;;;5.43;;
23260;SDS011;11799;47.740;-3.390;2023-04-28T03:51:57;14.80;;;5.40;;
23260;SDS011;11799;47.740;-3.390;2023-04-28T03:54:23;15.40;;;5.30;;
23260;SDS011;11799;47.740;-3.390;2023-04-28T03:56:49;17.67;;;5.72;;
23260;SDS011;11799;47.740;-3.390;2023-04-28T03:59:14;22.15;;;6.95;;
23260;SDS011;11799;47.740;-3.390;2023-04-28T04:01:41;28.08;;;14.43;;
23260;SDS011;11799;47.740;-3.390;2023-04-28T04:04:06;20.80;;;9.02;;
23260;SDS011;11799;47.740;-3.390;2023-04-28T04:06:32;22.95;;;8.00;;
23260;SDS011;11799;47.740;-3.390;2023-04-28T04:08:58;18.35;;;6.43;;
23260;SDS011;11799;47.740;-3.390;2023-04-28T04:11:24;15.77;;;5.70;;
23260;SDS011;11799;47.740;-3.390;2023-04-28T04:13:50;15.73;;;6.55;;
23260;SDS011;11799;47.740;-3.390;2023-04-28T04:16:17;16.50;;;5.72;;
23260;SDS011;11799;47.740;-3.390;2023-04-28T04:18:42;20.35;;;6.03;;
23260;SDS011;11799;47.740;-3.390;2023-04-28T04:21:14;16.80;;;5.97;;
23260;SDS011;11799;47.740;-3.390;2023-04-28T04:23:40;22.02;;;5.40;;
23260;SDS011;11799;47.740;-3.390;2023-04-28T04:26:05;14.15;;;4.80;;
23260;SDS011;11799;47.740;-3.390;2023-04-28T04:28:31;19.02;;;7.15;;
23260;SDS011;11799;47.740;-3.390;2023-04-28T04:30:57;24.08;;;7.72;;
23260;SDS011;11799;47.740;-3.390;2023-04-28T04:33:23;17.02;;;7.30;;
23260;SDS011;11799;47.740;-3.390;2023-04-28T04:35:49;20.88;;;6.63;;
23260;SDS011;11799;47.740;-3.390;2023-04-28T04:38:15;11.65;;;4.70;;
23260;SDS011;11799;47.740;-3.390;2023-04-28T04:40:41;11.07;;;4.78;;
23260;SDS011;11799;47.740;-3.390;2023-04-28T04:43:06;12.55;;;5.10;;
23260;SDS011;11799;47.740;-3.390;2023-04-28T04:45:39;15.55;;;5.38;;
23260;SDS011;11799;47.740;-3.390;2023-04-28T04:48:05;12.55;;;4.45;;
23260;SDS011;11799;47.740;-3.390;2023-04-28T04:50:31;13.00;;;4.88;;
23260;SDS011;11799;47.740;-3.390;2023-04-28T04:52:56;13.68;;;4.15;;
23260;SDS011;11799;47.740;-3.390;2023-04-28T04:55:22;9.10;;;4.00;;
23260;SDS011;11799;47.740;-3.390;2023-04-28T04:57:50;10.35;;;4.50;;
23260;SDS011;11799;47.740;-3.390;2023-04-28T05:00:26;18.95;;;4.93;;
23260;SDS011;11799;47.740;-3.390;2023-04-28T05:02:53;15.80;;;6.22;;
23260;SDS011;11799;47.740;-3.390;2023-04-28T05:05:18;11.93;;;5.60;;
23260;SDS011;11799;47.740;-3.390;2023-04-28T05:07:44;18.50;;;6.68;;
23260;SDS011;11799;47.740;-3.390;2023-04-28T05:10:10;13.20;;;5.47;;
23260;SDS011;11799;47.740;-3.390;2023-04-28T05:12:36;12.25;;;5.88;;
23260;SDS011;11799;47.740;-3.390;2023-04-28T05:15:04;12.75;;;5.38;;
23260;SDS011;11799;47.740;-3.390;2023-04-28T05:17:32;11.38;;;5.10;;
23260;SDS011;11799;47.740;-3.390;2023-04-28T05:19:57;11.07;;;4.95;;
23260;SDS011;11799;47.740;-3.390;2023-04-28T05:22:23;14.60;;;6.18;;
23260;SDS011;11799;47.740;-3.390;2023-04-28T05:24:50;12.18;;;5.88;;
23260;SDS011;11799;47.740;-3.390;2023-04-28T05:27:17;9.10;;;4.47;;
23260;SDS011;11799;47.740;-3.390;2023-04-28T05:29:42;12.95;;;4.72;;
23260;SDS011;11799;47.740;-3.390;2023-04-28T05:32:09;13.30;;;5.22;;
23260;SDS011;11799;47.740;-3.390;2023-04-28T05:34:36;9.80;;;4.40;;
23260;SDS011;11799;47.740;-3.390;2023-04-28T05:37:01;10.05;;;4.60;;
23260;SDS011;11799;47.740;-3.390;2023-04-28T05:39:28;13.70;;;4.85;;
23260;SDS011;11799;47.740;-3.390;2023-04-28T05:41:56;10.82;;;4.55;;
23260;SDS011;11799;47.740;-3.390;2023-04-28T05:44:26;11.90;;;4.20;;
23260;SDS011;11799;47.740;-3.390;2023-04-28T05:46:51;9.40;;;4.05;;
23260;SDS011;11799;47.740;-3.390;2023-04-28T05:49:22;8.15;;;4.03;;
23260;SDS011;11799;47.740;-3.390;2023-04-28T05:51:48;7.82;;;4.13;;
23260;SDS011;11799;47.740;-3.390;2023-04-28T05:54:14;10.98;;;4.50;;
23260;SDS011;11799;47.740;-3.390;2023-04-28T05:56:44;7.70;;;4.80;;
23260;SDS011;11799;47.740;-3.390;2023-04-28T05:59:09;12.07;;;4.50;;
23260;SDS011;11799;47.740;-3.390;2023-04-28T06:01:35;11.43;;;4.88;;
23260;SDS011;11799;47.740;-3.390;2023-04-28T06:04:01;10.23;;;4.70;;
23260;SDS011;11799;47.740;-3.390;2023-04-28T06:06:26;10.07;;;4.53;;
23260;SDS011;11799;47.740;-3.390;2023-04-28T06:08:52;9.43;;;4.45;;
23260;SDS011;11799;47.740;-3.390;2023-04-28T06:11:18;11.60;;;5.40;;
23260;SDS011;11799;47.740;-3.390;2023-04-28T06:13:47;7.85;;;4.97;;
23260;SDS011;11799;47.740;-3.390;2023-04-28T06:16:14;8.13;;;4.60;;
23260;SDS011;11799;47.740;-3.390;2023-04-28T06:18:41;10.13;;;5.07;;
23260;SDS011;11799;47.740;-3.390;2023-04-28T06:21:07;10.15;;;4.72;;
23260;SDS011;11799;47.740;-3.390;2023-04-28T06:23:32;13.10;;;5.10;;
23260;SDS011;11799;47.740;-3.390;2023-04-28T06:25:58;10.80;;;4.90;;
23260;SDS011;11799;47.740;-3.390;2023-04-28T06:28:23;11.35;;;4.60;;
23260;SDS011;11799;47.740;-3.390;2023-04-28T06:30:51;8.82;;;4.28;;
23260;SDS011;11799;47.740;-3.390;2023-04-28T06:33:17;8.15;;;4.18;;
23260;SDS011;11799;47.740;-3.390;2023-04-28T06:35:43;7.88;;;3.83;;
23260;SDS011;11799;47.740;-3.390;2023-04-28T06:38:10;7.35;;;4.03;;
23260;SDS011;11799;47.740;-3.390;2023-04-28T06:40:35;6.07;;;4.15;;
23260;SDS011;11799;47.740;-3.390;2023-04-28T06:43:03;6.10;;;4.18;;
23260;SDS011;11799;47.740;-3.390;2023-04-28T06:45:44;7.20;;;4.10;;
23260;SDS011;11799;47.740;-3.390;2023-04-28T06:48:10;6.38;;;3.72;;
23260;SDS011;11799;47.740;-3.390;2023-04-28T06:50:37;6.93;;;3.55;;
23260;SDS011;11799;47.740;-3.390;2023-04-28T06:53:05;7.75;;;3.45;;
23260;SDS011;11799;47.740;-3.390;2023-04-28T06:55:31;7.10;;;3.58;;
23260;SDS011;11799;47.740;-3.390;2023-04-28T06:57:58;7.28;;;3.95;;
23260;SDS011;11799;47.740;-3.390;2023-04-28T07:00:23;9.25;;;3.20;;
23260;SDS011;11799;47.740;-3.390;2023-04-28T07:02:49;5.38;;;3.25;;
23260;SDS011;11799;47.740;-3.390;2023-04-28T07:05:14;11.77;;;4.45;;
23260;SDS011;11799;47.740;-3.390;2023-04-28T07:07:40;6.30;;;3.60;;
23260;SDS011;11799;47.740;-3.390;2023-04-28T07:10:06;8.70;;;3.70;;
23260;SDS011;11799;47.740;-3.390;2023-04-28T07:12:32;7.10;;;4.03;;
23260;SDS011;11799;47.740;-3.390;2023-04-28T07:14:57;6.35;;;3.55;;
23260;SDS011;11799;47.740;-3.390;2023-04-28T07:17:23;4.78;;;3.20;;
23260;SDS011;11799;47.740;-3.390;2023-04-28T07:19:48;4.05;;;2.70;;
23260;SDS011;11799;47.740;-3.390;2023-04-28T07:22:15;6.63;;;2.92;;
23260;SDS011;11799;47.740;-3.390;2023-04-28T07:24:41;6.10;;;3.10;;
23260;SDS011;11799;47.740;-3.390;2023-04-28T07:27:06;5.00;;;3.88;;
23260;SDS011;11799;47.740;-3.390;2023-04-28T07:29:32;5.55;;;2.92;;
23260;SDS011;11799;47.740;-3.390;2023-04-28T07:31:59;6.25;;;3.47;;
23260;SDS011;11799;47.740;-3.390;2023-04-28T07:34:25;6.45;;;3.00;;
23260;SDS011;11799;47.740;-3.390;2023-04-28T07:36:51;11.10;;;6.25;;
23260;SDS011;11799;47.740;-3.390;2023-04-28T07:39:17;9.98;;;5.22;;
23260;SDS011;11799;47.740;-3.390;2023-04-28T07:41:43;6.13;;;4.03;;
23260;SDS011;11799;47.740;-3.390;2023-04-28T07:44:08;6.28;;;4.05;;
23260;SDS011;11799;47.740;-3.390;2023-04-28T07:46:34;8.70;;;5.22;;
23260;SDS011;11799;47.740;-3.390;2023-04-28T07:49:00;9.32;;;4.05;;
23260;SDS011;11799;47.740;-3.390;2023-04-28T07:51:27;5.25;;;3.90;;
23260;SDS011;11799;47.740;-3.390;2023-04-28T07:53:53;6.57;;;4.10;;
23260;SDS011;11799;47.740;-3.390;2023-04-28T07:56:18;5.38;;;3.30;;
23260;SDS011;11799;47.740;-3.390;2023-04-28T07:58:46;4.80;;;3.17;;
23260;SDS011;11799;47.740;-3.390;2023-04-28T08:01:12;5.63;;;3.40;;
23260;SDS011;11799;47.740;-3.390;2023-04-28T08:03:37;4.43;;;3.13;;
23260;SDS011;11799;47.740;-3.390;2023-04-28T08:06:03;3.42;;;2.80;;
23260;SDS011;11799;47.740;-3.390;2023-04-28T08:08:29;6.82;;;2.92;;
23260;SDS011;11799;47.740;-3.390;2023-04-28T08:10:55;4.30;;;2.78;;
23260;SDS011;11799;47.740;-3.390;2023-04-28T08:13:21;4.40;;;3.38;;
23260;SDS011;11799;47.740;-3.390;2023-04-28T08:15:47;6.30;;;2.90;;
23260;SDS011;11799;47.740;-3.390;2023-04-28T08:18:13;5.53;;;3.10;;
23260;SDS011;11799;47.740;-3.390;2023-04-28T08:20:39;4.15;;;2.90;;
23260;SDS011;11799;47.740;-3.390;2023-04-28T08:23:06;4.63;;;3.03;;
23260;SDS011;11799;47.740;-3.390;2023-04-28T08:25:32;4.50;;;3.05;;
23260;SDS011;11799;47.740;-3.390;2023-04-28T08:27:57;4.03;;;3.15;;
23260;SDS011;11799;47.740;-3.390;2023-04-28T08:30:23;6.57;;;3.38;;
23260;SDS011;11799;47.740;-3.390;2023-04-28T08:32:49;6.38;;;3.38;;
23260;SDS011;11799;47.740;-3.390;2023-04-28T08:35:14;3.85;;;3.00;;
23260;SDS011;11799;47.740;-3.390;2023-04-28T08:37:40;3.90;;;3.25;;
23260;SDS011;11799;47.740;-3.390;2023-04-28T08:40:06;9.68;;;8.68;;
23260;SDS011;11799;47.740;-3.390;2023-04-28T08:42:35;7.32;;;6.63;;
23260;SDS011;11799;47.740;-3.390;2023-04-28T08:45:02;3.88;;;3.47;;
23260;SDS011;11799;47.740;-3.390;2023-04-28T08:47:33;4.63;;;2.60;;
23260;SDS011;11799;47.740;-3.390;2023-04-28T08:50:04;2.88;;;2.47;;
23260;SDS011;11799;47.740;-3.390;2023-04-28T08:52:31;3.63;;;2.70;;
23260;SDS011;11799;47.740;-3.390;2023-04-28T08:54:58;5.45;;;3.28;;
23260;SDS011;11799;47.740;-3.390;2023-04-28T08:57:26;4.60;;;2.85;;
23260;SDS011;11799;47.740;-3.390;2023-04-28T08:59:52;3.95;;;3.05;;
23260;SDS011;11799;47.740;-3.390;2023-04-28T09:02:18;3.95;;;3.20;;
23260;SDS011;11799;47.740;-3.390;2023-04-28T09:04:45;3.92;;;2.80;;
23260;SDS011;11799;47.740;-3.390;2023-04-28T09:07:11;4.28;;;3.00;;
23260;SDS011;11799;47.740;-3.390;2023-04-28T09:09:38;2.75;;;2.50;;
23260;SDS011;11799;47.740;-3.390;2023-04-28T09:12:05;3.05;;;2.75;;
23260;SDS011;11799;47.740;-3.390;2023-04-28T09:14:32;3.95;;;2.70;;
23260;SDS011;11799;47.740;-3.390;2023-04-28T09:16:59;3.47;;;3.03;;
23260;SDS011;11799;47.740;-3.390;2023-04-28T09:19:32;4.70;;;2.60;;
23260;SDS011;11799;47.740;-3.390;2023-04-28T09:21:58;3.17;;;2.75;;
23260;SDS011;11799;47.740;-3.390;2023-04-28T09:24:28;3.38;;;2.75;;
23260;SDS011;11799;47.740;-3.390;2023-04-28T09:26:56;19.70;;;11.15;;
23260;SDS011;11799;47.740;-3.390;2023-04-28T09:29:22;8.20;;;4.30;;
23260;SDS011;11799;47.740;-3.390;2023-04-28T09:31:48;5.78;;;4.13;;
23260;SDS011;11799;47.740;-3.390;2023-04-28T09:34:14;6.43;;;4.60;;
23260;SDS011;11799;47.740;-3.390;2023-04-28T09:36:40;5.20;;;3.42;;
23260;SDS011;11799;47.740;-3.390;2023-04-28T09:39:06;5.65;;;3.70;;
23260;SDS011;11799;47.740;-3.390;2023-04-28T09:41:38;4.65;;;3.47;;
23260;SDS011;11799;47.740;-3.390;2023-04-28T09:44:15;5.20;;;3.88;;
23260;SDS011;11799;47.740;-3.390;2023-04-28T09:46:43;6.18;;;4.80;;
23260;SDS011;11799;47.740;-3.390;2023-04-28T09:49:10;5.55;;;3.47;;
23260;SDS011;11799;47.740;-3.390;2023-04-28T09:51:36;6.22;;;3.83;;
23260;SDS011;11799;47.740;-3.390;2023-04-28T09:54:02;5.10;;;3.75;;
23260;SDS011;11799;47.740;-3.390;2023-04-28T09:56:28;5.32;;;3.80;;
23260;SDS011;11799;47.740;-3.390;2023-04-28T09:58:56;4.35;;;3.20;;
23260;SDS011;11799;47.740;-3.390;2023-04-28T10:01:25;4.20;;;3.45;;
23260;SDS011;11799;47.740;-3.390;2023-04-28T10:03:52;2.90;;;2.70;;
23260;SDS011;11799;47.740;-3.390;2023-04-28T10:06:18;3.00;;;2.70;;
23260;SDS011;11799;47.740;-3.390;2023-04-28T10:08:44;3.95;;;2.97;;
23260;SDS011;11799;47.740;-3.390;2023-04-28T10:11:13;3.55;;;3.10;;
23260;SDS011;11799;47.740;-3.390;2023-04-28T10:13:41;3.20;;;2.90;;
23260;SDS011;11799;47.740;-3.390;2023-04-28T10:16:08;6.57;;;2.85;;
23260;SDS011;11799;47.740;-3.390;2023-04-28T10:18:35;3.10;;;2.80;;
23260;SDS011;11799;47.740;-3.390;2023-04-28T10:21:02;4.93;;;2.88;;
23260;SDS011;11799;47.740;-3.390;2023-04-28T10:26:02;11.98;;;9.05;;
23260;SDS011;11799;47.740;-3.390;2023-04-28T10:28:34;17.77;;;13.88;;
23260;SDS011;11799;47.740;-3.390;2023-04-28T10:33:39;2.65;;;2.45;;
23260;SDS011;11799;47.740;-3.390;2023-04-28T10:36:06;3.85;;;3.20;;
23260;SDS011;11799;47.740;-3.390;2023-04-28T10:38:32;3.03;;;2.72;;
23260;SDS011;11799;47.740;-3.390;2023-04-28T10:40:59;3.65;;;3.15;;
23260;SDS011;11799;47.740;-3.390;2023-04-28T10:43:37;6.78;;;5.75;;
23260;SDS011;11799;47.740;-3.390;2023-04-28T10:46:04;3.15;;;2.85;;
23260;SDS011;11799;47.740;-3.390;2023-04-28T11:08:36;2.35;;;1.88;;
23260;SDS011;11799;47.740;-3.390;2023-04-28T11:11:15;3.08;;;2.50;;
23260;SDS011;11799;47.740;-3.390;2023-04-28T11:13:45;3.22;;;2.42;;
23260;SDS011;11799;47.740;-3.390;2023-04-28T11:16:13;2.72;;;2.53;;
23260;SDS011;11799;47.740;-3.390;2023-04-28T11:21:21;4.65;;;3.60;;
23260;SDS011;11799;47.740;-3.390;2023-04-28T11:23:48;4.63;;;2.78;;
23260;SDS011;11799;47.740;-3.390;2023-04-28T11:26:14;2.70;;;2.50;;
23260;SDS011;11799;47.740;-3.390;2023-04-28T11:28:46;4.00;;;3.42;;
23260;SDS011;11799;47.740;-3.390;2023-04-28T11:31:13;2.50;;;2.30;;
23260;SDS011;11799;47.740;-3.390;2023-04-28T11:34:06;3.08;;;2.70;;
23260;SDS011;11799;47.740;-3.390;2023-04-28T11:36:41;4.10;;;2.88;;
23260;SDS011;11799;47.740;-3.390;2023-04-28T11:39:08;2.70;;;2.50;;
23260;SDS011;11799;47.740;-3.390;2023-04-28T11:41:35;3.00;;;2.80;;
23260;SDS011;11799;47.740;-3.390;2023-04-28T11:44:18;3.35;;;3.05;;
23260;SDS011;11799;47.740;-3.390;2023-04-28T11:46:46;3.17;;;2.65;;
23260;SDS011;11799;47.740;-3.390;2023-04-28T11:51:42;3.15;;;2.67;;
23260;SDS011;11799;47.740;-3.390;2023-04-28T11:54:10;2.60;;;2.40;;
23260;SDS011;11799;47.740;-3.390;2023-04-28T11:56:37;5.90;;;4.63;;
23260;SDS011;11799;47.740;-3.390;2023-04-28T11:59:04;3.97;;;3.10;;
23260;SDS011;11799;47.740;-3.390;2023-04-28T12:01:33;5.93;;;4.37;;
23260;SDS011;11799;47.740;-3.390;2023-04-28T12:04:38;3.42;;;2.92;;
23260;SDS011;11799;47.740;-3.390;2023-04-28T12:09:35;5.80;;;3.17;;
23260;SDS011;11799;47.740;-3.390;2023-04-28T12:12:02;5.45;;;3.15;;
23260;SDS011;11799;47.740;-3.390;2023-04-28T12:14:30;6.22;;;4.05;;
23260;SDS011;11799;47.740;-3.390;2023-04-28T12:16:59;5.60;;;3.58;;
23260;SDS011;11799;47.740;-3.390;2023-04-28T12:19:25;2.17;;;1.77;;
23260;SDS011;11799;47.740;-3.390;2023-04-28T12:22:01;2.40;;;2.15;;
23260;SDS011;11799;47.740;-3.390;2023-04-28T12:24:29;2.40;;;2.10;;
23260;SDS011;11799;47.740;-3.390;2023-04-28T12:27:12;1.70;;;1.60;;
23260;SDS011;11799;47.740;-3.390;2023-04-28T12:29:42;1.50;;;1.40;;
23260;SDS011;11799;47.740;-3.390;2023-04-28T12:32:10;1.60;;;1.50;;
23260;SDS011;11799;47.740;-3.390;2023-04-28T12:34:36;4.07;;;1.70;;
23260;SDS011;11799;47.740;-3.390;2023-04-28T12:37:04;1.40;;;1.30;;
23260;SDS011;11799;47.740;-3.390;2023-04-28T12:39:33;2.72;;;1.60;;
23260;SDS011;11799;47.740;-3.390;2023-04-28T12:42:01;1.70;;;1.60;;
23260;SDS011;11799;47.740;-3.390;2023-04-28T12:44:31;4.10;;;3.00;;
23260;SDS011;11799;47.740;-3.390;2023-04-28T12:47:01;2.60;;;2.40;;
23260;SDS011;11799;47.740;-3.390;2023-04-28T12:49:31;5.15;;;3.22;;
23260;SDS011;11799;47.740;-3.390;2023-04-28T12:51:58;3.00;;;2.70;;
23260;SDS011;11799;47.740;-3.390;2023-04-28T12:54:23;3.38;;;3.08;;
23260;SDS011;11799;47.740;-3.390;2023-04-28T12:56:49;5.10;;;2.88;;
23260;SDS011;11799;47.740;-3.390;2023-04-28T12:59:14;5.28;;;2.90;;
23260;SDS011;11799;47.740;-3.390;2023-04-28T13:01:40;4.82;;;2.40;;
23260;SDS011;11799;47.740;-3.390;2023-04-28T13:04:06;3.78;;;2.40;;
23260;SDS011;11799;47.740;-3.390;2023-04-28T13:06:33;2.72;;;2.53;;
23260;SDS011;11799;47.740;-3.390;2023-04-28T13:08:59;2.22;;;2.03;;
23260;SDS011;11799;47.740;-3.390;2023-04-28T13:11:25;3.60;;;2.33;;
23260;SDS011;11799;47.740;-3.390;2023-04-28T13:13:52;3.47;;;2.05;;
23260;SDS011;11799;47.740;-3.390;2023-04-28T13:16:18;3.40;;;1.88;;
23260;SDS011;11799;47.740;-3.390;2023-04-28T13:18:43;2.17;;;2.00;;
23260;SDS011;11799;47.740;-3.390;2023-04-28T13:21:09;3.78;;;2.67;;
23260;SDS011;11799;47.740;-3.390;2023-04-28T13:23:35;2.08;;;1.95;;
23260;SDS011;11799;47.740;-3.390;2023-04-28T13:26:01;5.93;;;2.13;;
23260;SDS011;11799;47.740;-3.390;2023-04-28T13:28:28;2.85;;;2.13;;
23260;SDS011;11799;47.740;-3.390;2023-04-28T13:30:53;4.63;;;2.60;;
23260;SDS011;11799;47.740;-3.390;2023-04-28T13:33:19;4.60;;;2.60;;
23260;SDS011;11799;47.740;-3.390;2023-04-28T13:35:45;5.95;;;2.40;;
23260;SDS011;11799;47.740;-3.390;2023-04-28T13:38:11;5.57;;;2.28;;
23260;SDS011;11799;47.740;-3.390;2023-04-28T13:40:36;2.05;;;1.75;;
23260;SDS011;11799;47.740;-3.390;2023-04-28T13:43:02;2.22;;;2.03;;
23260;SDS011;11799;47.740;-3.390;2023-04-28T13:45:27;3.95;;;2.42;;
23260;SDS011;11799;47.740;-3.390;2023-04-28T13:47:53;4.15;;;2.75;;
23260;SDS011;11799;47.740;-3.390;2023-04-28T13:50:19;4.30;;;2.72;;
23260;SDS011;11799;47.740;-3.390;2023-04-28T13:52:44;3.50;;;2.55;;
23260;SDS011;11799;47.740;-3.390;2023-04-28T13:55:10;4.75;;;2.35;;
23260;SDS011;11799;47.740;-3.390;2023-04-28T13:57:35;5.35;;;3.50;;
23260;SDS011;11799;47.740;-3.390;2023-04-28T14:00:01;3.00;;;2.65;;
23260;SDS011;11799;47.740;-3.390;2023-04-28T14:02:32;4.47;;;2.72;;
23260;SDS011;11799;47.740;-3.390;2023-04-28T14:04:58;3.13;;;2.83;;
23260;SDS011;11799;47.740;-3.390;2023-04-28T14:07:23;3.63;;;2.60;;
23260;SDS011;11799;47.740;-3.390;2023-04-28T14:09:49;9.02;;;5.50;;
23260;SDS011;11799;47.740;-3.390;2023-04-28T14:12:15;8.27;;;4.38;;
23260;SDS011;11799;47.740;-3.390;2023-04-28T14:14:41;5.47;;;2.88;;
23260;SDS011;11799;47.740;-3.390;2023-04-28T14:17:07;2.72;;;2.30;;
23260;SDS011;11799;47.740;-3.390;2023-04-28T14:19:33;2.90;;;2.60;;
23260;SDS011;11799;47.740;-3.390;2023-04-28T14:21:58;2.78;;;2.50;;
23260;SDS011;11799;47.740;-3.390;2023-04-28T14:24:24;5.07;;;3.25;;
23260;SDS011;11799;47.740;-3.390;2023-04-28T14:26:49;4.40;;;4.00;;
23260;SDS011;11799;47.740;-3.390;2023-04-28T14:29:16;6.15;;;4.25;;
23260;SDS011;11799;47.740;-3.390;2023-04-28T14:31:42;4.72;;;3.97;;
23260;SDS011;11799;47.740;-3.390;2023-04-28T14:34:07;5.90;;;3.88;;
23260;SDS011;11799;47.740;-3.390;2023-04-28T14:36:33;3.80;;;3.35;;
23260;SDS011;11799;47.740;-3.390;2023-04-28T14:38:59;3.13;;;2.83;;
23260;SDS011;11799;47.740;-3.390;2023-04-28T14:41:24;4.78;;;3.75;;
23260;SDS011;11799;47.740;-3.390;2023-04-28T14:43:50;4.57;;;3.45;;
23260;SDS011;11799;47.740;-3.390;2023-04-28T14:46:16;11.23;;;6.45;;
23260;SDS011;11799;47.740;-3.390;2023-04-28T14:48:47;6.45;;;4.32;;
23260;SDS011;11799;47.740;-3.390;2023-04-28T14:51:13;5.03;;;3.92;;
23260;SDS011;11799;47.740;-3.390;2023-04-28T14:53:39;4.15;;;3.17;;
23260;SDS011;11799;47.740;-3.390;2023-04-28T14:56:06;4.03;;;3.08;;
23260;SDS011;11799;47.740;-3.390;2023-04-28T14:58:33;11.38;;;6.88;;
23260;SDS011;11799;47.740;-3.390;2023-04-28T15:00:59;6.68;;;4.10;;
23260;SDS011;11799;47.740;-3.390;2023-04-28T15:03:25;4.63;;;3.58;;